sensor_id;sensor_type;location;lat;lon;timestamp;pressure;altitude;pressure_sealevel;temperature;humidity
32237;BME280;18726;44.732;10.550;2024-03-02T00:02:29;100166.63;;;14.64;100.00
32237;BME280;18726;44.732;10.550;2024-03-02T00:05:33;100163.09;;;14.60;100.00
32237;BME280;18726;44.732;10.550;2024-03-02T00:08:37;100172.94;;;14.97;100.00
32237;BME280;18726;44.732;10.550;2024-03-02T00:11:40;100173.28;;;14.70;100.00
32237;BME280;18726;44.732;10.550;2024-03-02T00:14:43;100168.88;;;14.48;100.00
32237;BME280;18726;44.732;10.550;2024-03-02T00:17:55;100165.28;;;14.30;100.00
32237;BME280;18726;44.732;10.550;2024-03-02T00:20:58;100177.88;;;14.52;100.00
32237;BME280;18726;44.732;10.550;2024-03-02T00:24:38;100172.38;;;14.45;100.00
32237;BME280;18726;44.732;10.550;2024-03-02T00:27:46;100178.94;;;14.30;100.00
32237;BME280;18726;44.732;10.550;2024-03-02T00:34:04;100171.59;;;14.44;100.00
32237;BME280;18726;44.732;10.550;2024-03-02T00:37:09;100171.63;;;14.48;100.00
32237;BME280;18726;44.732;10.550;2024-03-02T00:40:12;100181.22;;;14.20;100.00
32237;BME280;18726;44.732;10.550;2024-03-02T00:46:30;100184.22;;;14.77;100.00
32237;BME280;18726;44.732;10.550;2024-03-02T00:49:36;100179.53;;;14.71;100.00
32237;BME280;18726;44.732;10.550;2024-03-02T00:52:40;100178.75;;;14.77;100.00
32237;BME280;18726;44.732;10.550;2024-03-02T00:55:44;100182.66;;;14.69;100.00
32237;BME280;18726;44.732;10.550;2024-03-02T00:58:51;100188.16;;;14.87;100.00
32237;BME280;18726;44.732;10.550;2024-03-02T01:01:55;100186.56;;;14.82;100.00
32237;BME280;18726;44.732;10.550;2024-03-02T01:04:59;100188.19;;;15.05;100.00
32237;BME280;18726;44.732;10.550;2024-03-02T01:08:02;100181.47;;;14.77;100.00
32237;BME280;18726;44.732;10.550;2024-03-02T01:11:06;100181.47;;;14.70;100.00
32237;BME280;18726;44.732;10.550;2024-03-02T01:14:10;100196.00;;;15.03;100.00
32237;BME280;18726;44.732;10.550;2024-03-02T01:17:14;100190.91;;;14.98;100.00
32237;BME280;18726;44.732;10.550;2024-03-02T01:20:18;100191.22;;;14.64;100.00
32237;BME280;18726;44.732;10.550;2024-03-02T01:23:22;100190.94;;;15.19;100.00
32237;BME280;18726;44.732;10.550;2024-03-02T01:26:26;100195.19;;;15.02;100.00
32237;BME280;18726;44.732;10.550;2024-03-02T01:29:30;100190.44;;;14.74;100.00
32237;BME280;18726;44.732;10.550;2024-03-02T01:32:33;100190.47;;;14.78;100.00
32237;BME280;18726;44.732;10.550;2024-03-02T01:35:37;100180.28;;;14.68;100.00
32237;BME280;18726;44.732;10.550;2024-03-02T01:38:41;100180.25;;;14.53;100.00
32237;BME280;18726;44.732;10.550;2024-03-02T01:41:44;100190.59;;;14.19;100.00
32237;BME280;18726;44.732;10.550;2024-03-02T01:44:48;100178.72;;;14.74;100.00
32237;BME280;18726;44.732;10.550;2024-03-02T01:47:52;100181.06;;;14.65;100.00
32237;BME280;18726;44.732;10.550;2024-03-02T01:50:57;100182.97;;;14.50;100.00
32237;BME280;18726;44.732;10.550;2024-03-02T01:54:00;100187.28;;;14.58;100.00
32237;BME280;18726;44.732;10.550;2024-03-02T01:57:04;100191.28;;;14.02;100.00
32237;BME280;18726;44.732;10.550;2024-03-02T02:00:08;100183.88;;;14.03;100.00
32237;BME280;18726;44.732;10.550;2024-03-02T02:03:15;100183.44;;;13.97;100.00
32237;BME280;18726;44.732;10.550;2024-03-02T02:06:19;100185.72;;;13.33;100.00
32237;BME280;18726;44.732;10.550;2024-03-02T02:09:23;100197.53;;;14.03;100.00
32237;BME280;18726;44.732;10.550;2024-03-02T02:12:28;100181.09;;;13.96;100.00
32237;BME280;18726;44.732;10.550;2024-03-02T02:15:31;100185.72;;;13.88;100.00
32237;BME280;18726;44.732;10.550;2024-03-02T02:18:38;100190.97;;;14.14;100.00
32237;BME280;18726;44.732;10.550;2024-03-02T02:21:44;100181.09;;;13.96;100.00
32237;BME280;18726;44.732;10.550;2024-03-02T02:24:48;100175.88;;;13.73;100.00
32237;BME280;18726;44.732;10.550;2024-03-02T02:27:51;100182.00;;;14.14;100.00
32237;BME280;18726;44.732;10.550;2024-03-02T02:30:55;100176.44;;;13.41;100.00
32237;BME280;18726;44.732;10.550;2024-03-02T02:34:03;100167.78;;;13.32;100.00
32237;BME280;18726;44.732;10.550;2024-03-02T02:37:07;100172.16;;;13.99;100.00
32237;BME280;18726;44.732;10.550;2024-03-02T02:40:11;100167.34;;;13.78;100.00
32237;BME280;18726;44.732;10.550;2024-03-02T02:43:15;100169.13;;;13.12;100.00
32237;BME280;18726;44.732;10.550;2024-03-02T02:46:19;100173.63;;;13.82;100.00
32237;BME280;18726;44.732;10.550;2024-03-02T02:49:23;100174.19;;;14.12;100.00
32237;BME280;18726;44.732;10.550;2024-03-02T02:52:31;100174.69;;;13.70;100.00
32237;BME280;18726;44.732;10.550;2024-03-02T02:55:36;100167.34;;;13.78;100.00
32237;BME280;18726;44.732;10.550;2024-03-02T02:58:43;100175.81;;;14.28;100.00
32237;BME280;18726;44.732;10.550;2024-03-02T03:01:47;100173.63;;;13.82;100.00
32237;BME280;18726;44.732;10.550;2024-03-02T03:04:51;100166.63;;;13.84;100.00
32237;BME280;18726;44.732;10.550;2024-03-02T03:07:54;100164.50;;;13.64;100.00
32237;BME280;18726;44.732;10.550;2024-03-02T03:10:58;100168.03;;;13.64;100.00
32237;BME280;18726;44.732;10.550;2024-03-02T03:14:01;100172.88;;;13.92;100.00
32237;BME280;18726;44.732;10.550;2024-03-02T03:17:04;100169.06;;;13.45;100.00
32237;BME280;18726;44.732;10.550;2024-03-02T03:20:10;100175.00;;;13.55;100.00
32237;BME280;18726;44.732;10.550;2024-03-02T03:23:14;100169.94;;;13.60;100.00
32237;BME280;18726;44.732;10.550;2024-03-02T03:26:19;100178.19;;;13.67;100.00
32237;BME280;18726;44.732;10.550;2024-03-02T03:29:22;100178.69;;;13.80;100.00
32237;BME280;18726;44.732;10.550;2024-03-02T03:32:27;100184.13;;;13.80;100.00
32237;BME280;18726;44.732;10.550;2024-03-02T03:35:30;100189.03;;;13.57;100.00
32237;BME280;18726;44.732;10.550;2024-03-02T03:38:33;100189.78;;;13.54;100.00
32237;BME280;18726;44.732;10.550;2024-03-02T03:41:36;100181.44;;;13.87;100.00
32237;BME280;18726;44.732;10.550;2024-03-02T03:44:41;100178.56;;;13.66;100.00
32237;BME280;18726;44.732;10.550;2024-03-02T03:47:44;100181.44;;;13.87;100.00
32237;BME280;18726;44.732;10.550;2024-03-02T03:50:48;100187.88;;;14.19;100.00
32237;BME280;18726;44.732;10.550;2024-03-02T03:53:52;100192.06;;;13.99;100.00
32237;BME280;18726;44.732;10.550;2024-03-02T03:56:56;100190.03;;;13.89;100.00
32237;BME280;18726;44.732;10.550;2024-03-02T03:59:59;100181.72;;;13.71;100.00
32237;BME280;18726;44.732;10.550;2024-03-02T04:03:04;100192.75;;;13.89;100.00
32237;BME280;18726;44.732;10.550;2024-03-02T04:06:07;100194.50;;;13.60;100.00
32237;BME280;18726;44.732;10.550;2024-03-02T04:09:11;100193.22;;;13.98;100.00
32237;BME280;18726;44.732;10.550;2024-03-02T04:12:15;100194.38;;;13.42;100.00
32237;BME280;18726;44.732;10.550;2024-03-02T04:15:19;100202.50;;;13.90;100.00
32237;BME280;18726;44.732;10.550;2024-03-02T04:18:23;100208.34;;;13.37;100.00
32237;BME280;18726;44.732;10.550;2024-03-02T04:21:26;100210.88;;;14.18;100.00
32237;BME280;18726;44.732;10.550;2024-03-02T04:24:30;100204.06;;;14.57;100.00
32237;BME280;18726;44.732;10.550;2024-03-02T04:27:33;100217.34;;;14.58;100.00
32237;BME280;18726;44.732;10.550;2024-03-02T04:30:36;100216.19;;;14.59;100.00
32237;BME280;18726;44.732;10.550;2024-03-02T04:33:40;100217.00;;;14.74;100.00
32237;BME280;18726;44.732;10.550;2024-03-02T04:36:43;100224.06;;;14.71;100.00
32237;BME280;18726;44.732;10.550;2024-03-02T04:39:47;100217.81;;;14.81;100.00
32237;BME280;18726;44.732;10.550;2024-03-02T04:42:51;100223.19;;;14.53;100.00
32237;BME280;18726;44.732;10.550;2024-03-02T04:45:55;100219.47;;;14.13;100.00
32237;BME280;18726;44.732;10.550;2024-03-02T04:48:58;100223.53;;;14.44;100.00
32237;BME280;18726;44.732;10.550;2024-03-02T04:52:02;100217.97;;;14.27;100.00
32237;BME280;18726;44.732;10.550;2024-03-02T04:55:05;100224.53;;;14.18;100.00
32237;BME280;18726;44.732;10.550;2024-03-02T04:58:28;100223.94;;;14.46;100.00
32237;BME280;18726;44.732;10.550;2024-03-02T05:01:32;100229.41;;;14.43;100.00
32237;BME280;18726;44.732;10.550;2024-03-02T05:04:37;100238.88;;;14.67;100.00
32237;BME280;18726;44.732;10.550;2024-03-02T05:07:40;100233.38;;;14.63;100.00
32237;BME280;18726;44.732;10.550;2024-03-02T05:10:45;100232.63;;;14.73;100.00
32237;BME280;18726;44.732;10.550;2024-03-02T05:13:49;100240.34;;;14.50;100.00
32237;BME280;18726;44.732;10.550;2024-03-02T05:16:52;100238.56;;;14.13;100.00
32237;BME280;18726;44.732;10.550;2024-03-02T05:19:56;100239.09;;;14.37;100.00
32237;BME280;18726;44.732;10.550;2024-03-02T05:23:00;100252.88;;;14.58;100.00
32237;BME280;18726;44.732;10.550;2024-03-02T05:26:04;100246.25;;;14.56;100.00
32237;BME280;18726;44.732;10.550;2024-03-02T05:29:08;100255.41;;;14.23;100.00
32237;BME280;18726;44.732;10.550;2024-03-02T05:32:11;100264.59;;;14.55;100.00
32237;BME280;18726;44.732;10.550;2024-03-02T05:35:14;100254.38;;;14.45;100.00
32237;BME280;18726;44.732;10.550;2024-03-02T05:38:18;100253.53;;;14.37;100.00
32237;BME280;18726;44.732;10.550;2024-03-02T05:41:22;100259.38;;;14.32;100.00
32237;BME280;18726;44.732;10.550;2024-03-02T05:44:26;100258.97;;;14.30;100.00
32237;BME280;18726;44.732;10.550;2024-03-02T05:47:30;100262.28;;;14.61;100.00
32237;BME280;18726;44.732;10.550;2024-03-02T05:50:33;100264.13;;;14.46;100.00
32237;BME280;18726;44.732;10.550;2024-03-02T05:53:37;100270.41;;;14.43;100.00
32237;BME280;18726;44.732;10.550;2024-03-02T05:56:41;100272.34;;;14.46;100.00
32237;BME280;18726;44.732;10.550;2024-03-02T05:59:45;100271.47;;;14.31;100.00
32237;BME280;18726;44.732;10.550;2024-03-02T06:02:49;100274.75;;;14.58;100.00
32237;BME280;18726;44.732;10.550;2024-03-02T06:05:53;100277.34;;;14.37;100.00
32237;BME280;18726;44.732;10.550;2024-03-02T06:08:57;100286.53;;;14.69;100.00
32237;BME280;18726;44.732;10.550;2024-03-02T06:12:02;100285.25;;;13.94;100.00
32237;BME280;18726;44.732;10.550;2024-03-02T06:15:07;100287.81;;;14.24;100.00
32237;BME280;18726;44.732;10.550;2024-03-02T06:18:11;100288.72;;;14.46;100.00
32237;BME280;18726;44.732;10.550;2024-03-02T06:21:15;100296.44;;;14.99;100.00
32237;BME280;18726;44.732;10.550;2024-03-02T06:24:19;100289.84;;;15.25;100.00
32237;BME280;18726;44.732;10.550;2024-03-02T06:27:23;100301.09;;;14.95;100.00
32237;BME280;18726;44.732;10.550;2024-03-02T06:30:26;100300.34;;;15.08;100.00
32237;BME280;18726;44.732;10.550;2024-03-02T06:33:30;100310.59;;;14.46;100.00
32237;BME280;18726;44.732;10.550;2024-03-02T06:36:33;100305.03;;;14.32;100.00
32237;BME280;18726;44.732;10.550;2024-03-02T06:39:37;100313.94;;;14.87;100.00
32237;BME280;18726;44.732;10.550;2024-03-02T06:42:41;100306.84;;;14.68;100.00
32237;BME280;18726;44.732;10.550;2024-03-02T06:45:45;100312.19;;;14.43;100.00
32237;BME280;18726;44.732;10.550;2024-03-02T06:48:49;100315.00;;;14.61;100.00
32237;BME280;18726;44.732;10.550;2024-03-02T06:51:52;100324.09;;;14.83;100.00
32237;BME280;18726;44.732;10.550;2024-03-02T06:54:55;100333.22;;;15.15;100.00
32237;BME280;18726;44.732;10.550;2024-03-02T06:57:59;100341.31;;;14.91;100.00
32237;BME280;18726;44.732;10.550;2024-03-02T07:01:03;100340.78;;;14.64;100.00
32237;BME280;18726;44.732;10.550;2024-03-02T07:04:07;100340.06;;;14.70;100.00
32237;BME280;18726;44.732;10.550;2024-03-02T07:07:10;100334.88;;;14.58;100.00
32237;BME280;18726;44.732;10.550;2024-03-02T07:10:14;100339.25;;;14.73;100.00
32237;BME280;18726;44.732;10.550;2024-03-02T07:13:18;100344.31;;;14.64;100.00
32237;BME280;18726;44.732;10.550;2024-03-02T07:16:22;100352.19;;;14.80;100.00
32237;BME280;18726;44.732;10.550;2024-03-02T07:19:33;100352.56;;;14.71;100.00
32237;BME280;18726;44.732;10.550;2024-03-02T07:22:36;100350.47;;;14.50;100.00
32237;BME280;18726;44.732;10.550;2024-03-02T07:25:40;100361.75;;;14.42;100.00
32237;BME280;18726;44.732;10.550;2024-03-02T07:28:46;100362.38;;;14.86;100.00
32237;BME280;18726;44.732;10.550;2024-03-02T07:31:51;100367.06;;;14.82;100.00
32237;BME280;18726;44.732;10.550;2024-03-02T07:34:54;100365.00;;;14.17;100.00
32237;BME280;18726;44.732;10.550;2024-03-02T07:37:59;100373.91;;;14.55;100.00
32237;BME280;18726;44.732;10.550;2024-03-02T07:41:03;100374.03;;;14.69;100.00
32237;BME280;18726;44.732;10.550;2024-03-02T07:44:07;100383.38;;;14.65;100.00
32237;BME280;18726;44.732;10.550;2024-03-02T07:47:11;100388.91;;;14.79;100.00
32237;BME280;18726;44.732;10.550;2024-03-02T07:50:16;100391.66;;;14.28;100.00
32237;BME280;18726;44.732;10.550;2024-03-02T07:53:20;100398.25;;;14.71;100.00
32237;BME280;18726;44.732;10.550;2024-03-02T07:56:24;100391.81;;;14.42;100.00
32237;BME280;18726;44.732;10.550;2024-03-02T07:59:28;100396.09;;;14.43;100.00
32237;BME280;18726;44.732;10.550;2024-03-02T08:02:31;100391.13;;;14.59;100.00
32237;BME280;18726;44.732;10.550;2024-03-02T08:05:35;100396.91;;;15.16;100.00
32237;BME280;18726;44.732;10.550;2024-03-02T08:08:39;100403.88;;;14.96;100.00
32237;BME280;18726;44.732;10.550;2024-03-02T08:11:42;100407.44;;;15.10;100.00
32237;BME280;18726;44.732;10.550;2024-03-02T08:14:46;100413.91;;;14.77;100.00
32237;BME280;18726;44.732;10.550;2024-03-02T08:17:50;100409.00;;;14.49;100.00
32237;BME280;18726;44.732;10.550;2024-03-02T08:20:54;100409.56;;;14.69;100.00
32237;BME280;18726;44.732;10.550;2024-03-02T08:23:58;100411.25;;;14.92;100.00
32237;BME280;18726;44.732;10.550;2024-03-02T08:27:02;100415.03;;;14.69;100.00
32237;BME280;18726;44.732;10.550;2024-03-02T08:30:06;100417.78;;;14.76;100.00
32237;BME280;18726;44.732;10.550;2024-03-02T08:33:12;100417.06;;;14.83;100.00
32237;BME280;18726;44.732;10.550;2024-03-02T08:36:15;100417.78;;;14.69;100.00
32237;BME280;18726;44.732;10.550;2024-03-02T08:39:19;100415.81;;;14.73;100.00
32237;BME280;18726;44.732;10.550;2024-03-02T08:42:23;100420.94;;;14.78;100.00
32237;BME280;18726;44.732;10.550;2024-03-02T08:45:27;100427.22;;;14.82;100.00
32237;BME280;18726;44.732;10.550;2024-03-02T08:48:31;100427.72;;;15.02;100.00
32237;BME280;18726;44.732;10.550;2024-03-02T08:51:34;100428.88;;;14.94;100.00
32237;BME280;18726;44.732;10.550;2024-03-02T08:54:38;100429.53;;;14.80;100.00
32237;BME280;18726;44.732;10.550;2024-03-02T08:57:42;100431.94;;;14.89;100.00
32237;BME280;18726;44.732;10.550;2024-03-02T09:00:47;100430.06;;;14.42;100.00
32237;BME280;18726;44.732;10.550;2024-03-02T09:03:50;100426.56;;;14.48;100.00
32237;BME280;18726;44.732;10.550;2024-03-02T09:06:54;100442.00;;;14.71;100.00
32237;BME280;18726;44.732;10.550;2024-03-02T09:09:58;100435.91;;;15.02;100.00
32237;BME280;18726;44.732;10.550;2024-03-02T09:13:01;100444.50;;;14.97;100.00
32237;BME280;18726;44.732;10.550;2024-03-02T09:16:06;100442.38;;;14.69;100.00
32237;BME280;18726;44.732;10.550;2024-03-02T09:19:11;100444.78;;;14.81;100.00
32237;BME280;18726;44.732;10.550;2024-03-02T09:22:14;100449.75;;;15.27;100.00
32237;BME280;18726;44.732;10.550;2024-03-02T09:25:18;100448.78;;;14.95;100.00
32237;BME280;18726;44.732;10.550;2024-03-02T09:28:22;100446.31;;;14.79;100.00
32237;BME280;18726;44.732;10.550;2024-03-02T09:31:25;100452.28;;;14.92;100.00
32237;BME280;18726;44.732;10.550;2024-03-02T09:34:29;100438.00;;;15.23;100.00
32237;BME280;18726;44.732;10.550;2024-03-02T09:37:33;100446.97;;;15.20;100.00
32237;BME280;18726;44.732;10.550;2024-03-02T09:40:37;100446.34;;;15.51;100.00
32237;BME280;18726;44.732;10.550;2024-03-02T09:43:41;100450.94;;;15.26;100.00
32237;BME280;18726;44.732;10.550;2024-03-02T09:46:48;100444.56;;;16.02;100.00
32237;BME280;18726;44.732;10.550;2024-03-02T09:49:52;100450.41;;;15.93;100.00
32237;BME280;18726;44.732;10.550;2024-03-02T09:52:57;100447.63;;;15.79;100.00
32237;BME280;18726;44.732;10.550;2024-03-02T09:56:02;100449.44;;;15.43;100.00
32237;BME280;18726;44.732;10.550;2024-03-02T09:59:06;100444.66;;;15.22;100.00
32237;BME280;18726;44.732;10.550;2024-03-02T10:02:09;100455.84;;;15.79;100.00
32237;BME280;18726;44.732;10.550;2024-03-02T10:05:13;100461.44;;;16.43;100.00
32237;BME280;18726;44.732;10.550;2024-03-02T10:08:17;100460.13;;;15.69;100.00
32237;BME280;18726;44.732;10.550;2024-03-02T10:14:32;100476.28;;;16.06;100.00
32237;BME280;18726;44.732;10.550;2024-03-02T10:17:36;100469.22;;;16.05;100.00
32237;BME280;18726;44.732;10.550;2024-03-02T10:20:40;100472.75;;;16.06;100.00
32237;BME280;18726;44.732;10.550;2024-03-02T10:23:44;100479.75;;;15.96;100.00
32237;BME280;18726;44.732;10.550;2024-03-02T10:26:48;100473.00;;;15.62;100.00
32237;BME280;18726;44.732;10.550;2024-03-02T10:29:52;100478.63;;;16.04;100.00
32237;BME280;18726;44.732;10.550;2024-03-02T10:32:57;100477.88;;;16.46;100.00
32237;BME280;18726;44.732;10.550;2024-03-02T10:36:02;100475.50;;;16.24;100.00
32237;BME280;18726;44.732;10.550;2024-03-02T10:39:06;100480.13;;;15.84;100.00
32237;BME280;18726;44.732;10.550;2024-03-02T10:42:11;100479.44;;;16.15;100.00
32237;BME280;18726;44.732;10.550;2024-03-02T10:45:16;100467.72;;;16.40;100.00
32237;BME280;18726;44.732;10.550;2024-03-02T10:48:20;100469.63;;;16.14;100.00
32237;BME280;18726;44.732;10.550;2024-03-02T10:51:26;100459.88;;;16.52;100.00
32237;BME280;18726;44.732;10.550;2024-03-02T10:54:29;100463.81;;;16.66;100.00
32237;BME280;18726;44.732;10.550;2024-03-02T10:57:52;100476.31;;;16.99;100.00
32237;BME280;18726;44.732;10.550;2024-03-02T11:01:02;100463.00;;;16.54;100.00
32237;BME280;18726;44.732;10.550;2024-03-02T11:07:30;100471.56;;;17.24;100.00
32237;BME280;18726;44.732;10.550;2024-03-02T11:10:38;100461.25;;;17.57;100.00
32237;BME280;18726;44.732;10.550;2024-03-02T11:13:50;100473.47;;;17.34;100.00
32237;BME280;18726;44.732;10.550;2024-03-02T11:16:56;100466.88;;;17.07;100.00
32237;BME280;18726;44.732;10.550;2024-03-02T11:20:04;100478.69;;;16.82;100.00
32237;BME280;18726;44.732;10.550;2024-03-02T11:23:09;100468.63;;;17.81;100.00
32237;BME280;18726;44.732;10.550;2024-03-02T11:26:22;100474.63;;;17.47;100.00
32237;BME280;18726;44.732;10.550;2024-03-02T11:32:55;100466.34;;;18.28;100.00
32237;BME280;18726;44.732;10.550;2024-03-02T11:36:00;100459.88;;;18.52;100.00
32237;BME280;18726;44.732;10.550;2024-03-02T11:39:04;100449.34;;;18.43;100.00
32237;BME280;18726;44.732;10.550;2024-03-02T11:42:09;100447.31;;;18.51;100.00
32237;BME280;18726;44.732;10.550;2024-03-02T11:45:31;100445.91;;;18.80;99.83
32237;BME280;18726;44.732;10.550;2024-03-02T11:48:38;100447.38;;;18.44;100.00
32237;BME280;18726;44.732;10.550;2024-03-02T11:52:00;100453.34;;;18.83;100.00
32237;BME280;18726;44.732;10.550;2024-03-02T11:55:05;100439.53;;;18.42;100.00
32237;BME280;18726;44.732;10.550;2024-03-02T11:58:23;100444.72;;;17.64;100.00
32237;BME280;18726;44.732;10.550;2024-03-02T12:01:29;100448.88;;;16.99;100.00
32237;BME280;18726;44.732;10.550;2024-03-02T12:04:34;100448.75;;;17.41;100.00
32237;BME280;18726;44.732;10.550;2024-03-02T12:07:38;100442.06;;;17.46;100.00
32237;BME280;18726;44.732;10.550;2024-03-02T12:10:43;100443.16;;;17.63;100.00
32237;BME280;18726;44.732;10.550;2024-03-02T12:14:01;100435.41;;;17.43;100.00
32237;BME280;18726;44.732;10.550;2024-03-02T12:17:09;100434.31;;;17.19;100.00
32237;BME280;18726;44.732;10.550;2024-03-02T12:20:14;100421.16;;;17.77;100.00
32237;BME280;18726;44.732;10.550;2024-03-02T12:23:37;100418.00;;;17.75;100.00
32237;BME280;18726;44.732;10.550;2024-03-02T12:26:40;100417.91;;;18.89;100.00
32237;BME280;18726;44.732;10.550;2024-03-02T12:29:45;100410.56;;;18.31;100.00
32237;BME280;18726;44.732;10.550;2024-03-02T12:32:49;100409.94;;;18.98;100.00
32237;BME280;18726;44.732;10.550;2024-03-02T12:35:53;100407.44;;;19.11;100.00
32237;BME280;18726;44.732;10.550;2024-03-02T12:38:57;100409.56;;;18.55;100.00
32237;BME280;18726;44.732;10.550;2024-03-02T12:42:02;100413.53;;;17.22;100.00
32237;BME280;18726;44.732;10.550;2024-03-02T12:45:07;100404.78;;;17.45;100.00
32237;BME280;18726;44.732;10.550;2024-03-02T12:48:11;100406.19;;;17.85;100.00
32237;BME280;18726;44.732;10.550;2024-03-02T12:55:45;100405.34;;;18.43;100.00
32237;BME280;18726;44.732;10.550;2024-03-02T13:03:04;100408.31;;;18.18;100.00
32237;BME280;18726;44.732;10.550;2024-03-02T13:16:00;100391.25;;;17.86;100.00
32237;BME280;18726;44.732;10.550;2024-03-02T13:19:07;100398.44;;;17.66;100.00
32237;BME280;18726;44.732;10.550;2024-03-02T13:22:11;100390.59;;;17.61;100.00
32237;BME280;18726;44.732;10.550;2024-03-02T13:25:36;100380.72;;;17.74;100.00
32237;BME280;18726;44.732;10.550;2024-03-02T13:28:39;100385.16;;;18.61;100.00
32237;BME280;18726;44.732;10.550;2024-03-02T13:31:44;100378.13;;;18.52;100.00
32237;BME280;18726;44.732;10.550;2024-03-02T13:34:48;100374.34;;;18.39;100.00
32237;BME280;18726;44.732;10.550;2024-03-02T13:37:52;100382.03;;;18.55;100.00
32237;BME280;18726;44.732;10.550;2024-03-02T13:41:19;100379.66;;;18.57;100.00
32237;BME280;18726;44.732;10.550;2024-03-02T13:44:31;100377.97;;;17.77;100.00
32237;BME280;18726;44.732;10.550;2024-03-02T13:47:35;100367.72;;;17.85;100.00
32237;BME280;18726;44.732;10.550;2024-03-02T13:50:39;100382.44;;;18.12;100.00
32237;BME280;18726;44.732;10.550;2024-03-02T13:53:44;100391.28;;;17.82;100.00
32237;BME280;18726;44.732;10.550;2024-03-02T13:56:52;100384.72;;;17.59;100.00
32237;BME280;18726;44.732;10.550;2024-03-02T14:00:24;100395.09;;;17.96;100.00
32237;BME280;18726;44.732;10.550;2024-03-02T14:03:29;100383.06;;;18.31;100.00
32237;BME280;18726;44.732;10.550;2024-03-02T14:06:33;100389.91;;;18.12;100.00
32237;BME280;18726;44.732;10.550;2024-03-02T14:09:37;100396.66;;;17.97;100.00
32237;BME280;18726;44.732;10.550;2024-03-02T14:12:41;100393.47;;;18.05;100.00
32237;BME280;18726;44.732;10.550;2024-03-02T14:15:45;100396.50;;;17.55;100.00
32237;BME280;18726;44.732;10.550;2024-03-02T14:18:52;100391.03;;;17.55;100.00
32237;BME280;18726;44.732;10.550;2024-03-02T14:21:56;100385.22;;;18.05;100.00
32237;BME280;18726;44.732;10.550;2024-03-02T14:25:11;100391.19;;;17.93;100.00
32237;BME280;18726;44.732;10.550;2024-03-02T14:28:15;100389.34;;;17.79;100.00
32237;BME280;18726;44.732;10.550;2024-03-02T14:31:24;100397.72;;;18.65;100.00
32237;BME280;18726;44.732;10.550;2024-03-02T14:34:28;100389.97;;;18.01;100.00
32237;BME280;18726;44.732;10.550;2024-03-02T14:37:35;100389.63;;;18.44;100.00
32237;BME280;18726;44.732;10.550;2024-03-02T14:40:40;100396.00;;;18.34;100.00
32237;BME280;18726;44.732;10.550;2024-03-02T14:43:44;100394.06;;;18.31;100.00
32237;BME280;18726;44.732;10.550;2024-03-02T14:46:48;100392.13;;;18.72;100.00
32237;BME280;18726;44.732;10.550;2024-03-02T14:49:52;100396.88;;;18.20;100.00
32237;BME280;18726;44.732;10.550;2024-03-02T14:52:56;100393.97;;;18.41;100.00
32237;BME280;18726;44.732;10.550;2024-03-02T14:56:04;100387.50;;;18.17;100.00
32237;BME280;18726;44.732;10.550;2024-03-02T14:59:48;100393.31;;;18.27;100.00
32237;BME280;18726;44.732;10.550;2024-03-02T15:03:39;100401.72;;;18.05;100.00
32237;BME280;18726;44.732;10.550;2024-03-02T15:06:52;100406.31;;;18.71;100.00
32237;BME280;18726;44.732;10.550;2024-03-02T15:10:00;100397.16;;;18.81;97.44
32237;BME280;18726;44.732;10.550;2024-03-02T15:13:04;100388.34;;;18.52;100.00
32237;BME280;18726;44.732;10.550;2024-03-02T15:16:07;100380.88;;;18.11;100.00
32237;BME280;18726;44.732;10.550;2024-03-02T15:19:12;100397.59;;;17.76;100.00
32237;BME280;18726;44.732;10.550;2024-03-02T15:22:19;100382.06;;;17.37;100.00
32237;BME280;18726;44.732;10.550;2024-03-02T15:25:23;100379.19;;;18.25;100.00
32237;BME280;18726;44.732;10.550;2024-03-02T15:28:27;100375.38;;;18.11;100.00
32237;BME280;18726;44.732;10.550;2024-03-02T15:44:19;100372.78;;;17.06;100.00
32237;BME280;18726;44.732;10.550;2024-03-02T15:47:33;100365.03;;;16.87;100.00
32237;BME280;18726;44.732;10.550;2024-03-02T15:55:49;100383.81;;;16.96;100.00
32237;BME280;18726;44.732;10.550;2024-03-02T16:03:33;100383.97;;;17.51;100.00
32237;BME280;18726;44.732;10.550;2024-03-02T16:06:50;100379.97;;;17.63;100.00
32237;BME280;18726;44.732;10.550;2024-03-02T16:09:54;100386.78;;;17.37;100.00
32237;BME280;18726;44.732;10.550;2024-03-02T16:12:58;100387.66;;;17.16;100.00
32237;BME280;18726;44.732;10.550;2024-03-02T16:16:04;100395.56;;;17.00;100.00
32237;BME280;18726;44.732;10.550;2024-03-02T16:19:08;100394.03;;;16.77;100.00
32237;BME280;18726;44.732;10.550;2024-03-02T16:22:37;100393.56;;;17.11;100.00
32237;BME280;18726;44.732;10.550;2024-03-02T16:25:47;100400.97;;;17.21;100.00
32237;BME280;18726;44.732;10.550;2024-03-02T16:28:53;100395.47;;;17.25;100.00
32237;BME280;18726;44.732;10.550;2024-03-02T16:31:56;100409.97;;;17.32;100.00
32237;BME280;18726;44.732;10.550;2024-03-02T16:35:01;100409.28;;;17.00;100.00
32237;BME280;18726;44.732;10.550;2024-03-02T16:38:54;100411.25;;;16.92;100.00
32237;BME280;18726;44.732;10.550;2024-03-02T16:42:21;100422.19;;;17.10;100.00
32237;BME280;18726;44.732;10.550;2024-03-02T16:50:30;100417.59;;;16.68;100.00